createdAt,value
2023-02-09T00:00:39.416Z,64.7
2023-02-09T00:01:55.000Z,64.7
2023-02-09T00:03:10.000Z,64.2
2023-02-09T00:04:27.000Z,64.1
2023-02-09T00:05:43.000Z,63.7
2023-02-09T00:06:59.000Z,63.2
2023-02-09T00:08:15.000Z,63.1
2023-02-09T00:09:31.000Z,62.9
2023-02-09T00:10:48.000Z,61.9
2023-02-09T00:12:04.000Z,61.7
2023-02-09T00:13:20.379Z,61.7
2023-02-09T00:14:36.000Z,61.3
2023-02-09T00:15:52.000Z,60.6
2023-02-09T00:17:09.000Z,60.6
2023-02-09T00:18:25.000Z,60.1
2023-02-09T00:19:40.000Z,60.3
2023-02-09T00:20:56.000Z,60.1
2023-02-09T00:22:12.000Z,59.9
2023-02-09T00:23:28.000Z,60
2023-02-09T00:24:45.000Z,59.9
2023-02-09T00:26:01.000Z,60.1
2023-02-09T00:27:17.000Z,60.4
2023-02-09T00:28:33.000Z,61
2023-02-09T00:29:49.000Z,62
2023-02-09T00:31:06.000Z,62.7
2023-02-09T00:32:22.000Z,62.7
2023-02-09T00:33:38.000Z,62.7
2023-02-09T00:34:54.000Z,62.8
2023-02-09T00:36:09.000Z,62.7
2023-02-09T00:37:26.000Z,62.6
2023-02-09T00:38:42.000Z,62.5
2023-02-09T00:39:58.000Z,62.4
2023-02-09T00:41:14.000Z,62.7
2023-02-09T00:42:30.000Z,62.2
2023-02-09T00:43:47.000Z,62.7
2023-02-09T00:45:03.000Z,62.9
2023-02-09T00:46:19.000Z,63.3
2023-02-09T00:47:35.000Z,63.6
2023-02-09T00:48:51.000Z,63.1
2023-02-09T00:50:08.000Z,62.5
2023-02-09T00:51:24.226Z,62.3
2023-02-09T00:52:39.000Z,62.5
2023-02-09T00:53:55.000Z,62.4
2023-02-09T00:55:11.000Z,62.6
2023-02-09T00:56:28.000Z,62.6
2023-02-09T00:57:44.000Z,62.6
2023-02-09T00:59:00.000Z,62.1
2023-02-09T01:00:16.000Z,61.5
2023-02-09T01:01:32.000Z,61.2
2023-02-09T01:02:49.000Z,61.1
2023-02-09T01:04:05.000Z,60.9
2023-02-09T01:05:21.000Z,60.3
2023-02-09T01:06:37.000Z,60.3
2023-02-09T01:07:53.000Z,60.2
2023-02-09T01:09:09.000Z,60.1
2023-02-09T01:10:25.000Z,59.3
2023-02-09T01:11:41.000Z,59.9
2023-02-09T01:12:57.000Z,59.6
2023-02-09T01:14:13.000Z,59.8
2023-02-09T01:15:29.000Z,59.8
2023-02-09T01:16:46.000Z,59.5
2023-02-09T01:18:02.000Z,59.4
2023-02-09T01:19:18.000Z,59.3
2023-02-09T01:20:34.000Z,59.4
2023-02-09T01:21:50.000Z,59.4
2023-02-09T01:23:07.000Z,59.2
2023-02-09T01:24:23.000Z,59
2023-02-09T01:25:38.000Z,58.7
2023-02-09T01:26:54.000Z,58.5
2023-02-09T01:28:10.000Z,58.5
2023-02-09T01:29:27.098Z,58.6
2023-02-09T01:30:43.000Z,58.6
2023-02-09T01:31:59.000Z,58.5
2023-02-09T01:33:14.000Z,58.6
2023-02-09T01:34:30.000Z,58.7
2023-02-09T01:35:47.000Z,59
2023-02-09T01:37:03.000Z,59.2
2023-02-09T01:38:19.000Z,59.1
2023-02-09T01:39:35.000Z,59.1
2023-02-09T01:40:51.000Z,59.2
2023-02-09T01:42:08.000Z,59
2023-02-09T01:43:24.000Z,58.8
2023-02-09T01:44:40.000Z,58.7
2023-02-09T01:45:56.000Z,58.6
2023-02-09T01:47:12.000Z,58.6
2023-02-09T01:48:29.000Z,58.5
2023-02-09T01:49:44.000Z,58.4
2023-02-09T01:51:00.000Z,58
2023-02-09T01:52:16.000Z,58.2
2023-02-09T01:53:32.000Z,58.2
2023-02-09T01:54:49.000Z,58.2
2023-02-09T01:56:05.000Z,58.2
2023-02-09T01:57:21.000Z,58.2
2023-02-09T01:58:37.000Z,58.5
2023-02-09T01:59:53.000Z,58.4
2023-02-09T02:01:10.000Z,58.3
2023-02-09T02:02:26.000Z,58.6
2023-02-09T02:03:42.000Z,58.9
2023-02-09T02:04:58.000Z,59.1
2023-02-09T02:06:13.000Z,59.3
2023-02-09T02:08:46.000Z,59.4
2023-02-09T02:10:02.000Z,59.3
2023-02-09T02:11:18.000Z,59.1
2023-02-09T02:12:34.000Z,59.1
2023-02-09T02:13:50.000Z,59.1
2023-02-09T02:15:07.000Z,59
2023-02-09T02:16:23.000Z,58.9
2023-02-09T02:17:39.000Z,58.6
2023-02-09T02:18:55.000Z,58.4
2023-02-09T02:20:11.000Z,58.1
2023-02-09T02:21:28.000Z,58
2023-02-09T02:22:43.000Z,57.9
2023-02-09T02:23:59.000Z,58
2023-02-09T02:25:15.000Z,58.1
2023-02-09T02:26:31.000Z,58.1
2023-02-09T02:27:48.126Z,58.1
2023-02-09T02:29:04.000Z,58.2
2023-02-09T02:30:20.000Z,58.3
2023-02-09T02:31:36.000Z,58.7
2023-02-09T02:32:52.000Z,58.9
2023-02-09T02:34:09.000Z,59.2
2023-02-09T02:35:25.000Z,59.3
2023-02-09T02:36:41.000Z,59.2
2023-02-09T02:37:57.000Z,59.1
2023-02-09T02:39:12.000Z,59
2023-02-09T02:40:29.000Z,59.1
2023-02-09T02:41:45.000Z,59
2023-02-09T02:43:01.000Z,59.3
2023-02-09T02:44:17.000Z,59.4
2023-02-09T02:45:33.850Z,59.3
2023-02-09T02:46:50.000Z,59.4
2023-02-09T02:48:06.000Z,59.6
2023-02-09T02:49:22.000Z,59.6
2023-02-09T02:50:38.000Z,59.6
2023-02-09T02:51:54.000Z,59.6
2023-02-09T02:53:11.000Z,59.5
2023-02-09T02:54:27.000Z,59.6
2023-02-09T02:55:42.000Z,59.9
2023-02-09T02:56:58.000Z,60.4
2023-02-09T02:58:14.818Z,60.5
2023-02-09T02:59:31.000Z,60.3
2023-02-09T03:00:47.000Z,60.1
2023-02-09T03:02:03.000Z,60
2023-02-09T03:03:19.000Z,60
2023-02-09T03:04:35.000Z,60
2023-02-09T03:05:52.000Z,60
2023-02-09T03:07:08.000Z,60.1
2023-02-09T03:08:24.000Z,59.9
2023-02-09T03:09:40.000Z,60.2
2023-02-09T03:10:56.000Z,60.3
2023-02-09T03:12:12.000Z,60.2
2023-02-09T03:13:28.000Z,60.3
2023-02-09T03:14:44.000Z,60.3
2023-02-09T03:16:00.000Z,60.3
2023-02-09T03:17:16.000Z,60.1
2023-02-09T03:18:32.000Z,60.1
2023-02-09T03:19:49.000Z,60
2023-02-09T03:21:05.000Z,60
2023-02-09T03:22:21.000Z,60.1
2023-02-09T03:23:37.730Z,60.1
2023-02-09T03:24:53.000Z,60.2
2023-02-09T03:26:10.000Z,60.2
2023-02-09T03:27:26.000Z,60.3
2023-02-09T03:28:41.000Z,60.2
2023-02-09T03:29:57.000Z,60.1
2023-02-09T03:31:13.000Z,60.2
2023-02-09T03:32:30.000Z,60.3
2023-02-09T03:33:46.000Z,60.6
2023-02-09T03:35:02.000Z,60.9
2023-02-09T03:36:18.724Z,61
2023-02-09T03:37:34.000Z,60.7
2023-02-09T03:38:51.000Z,60.8
2023-02-09T03:40:07.000Z,60.5
2023-02-09T03:41:23.000Z,60.5
2023-02-09T03:42:39.000Z,60.9
2023-02-09T03:43:55.000Z,61
2023-02-09T03:45:11.000Z,61.2
2023-02-09T03:46:27.000Z,61.3
2023-02-09T03:47:43.000Z,61.4
2023-02-09T03:48:59.000Z,61.5
2023-02-09T03:50:15.000Z,61.5
2023-02-09T03:51:32.000Z,61.7
2023-02-09T03:52:48.000Z,61.9
2023-02-09T03:54:04.000Z,61.8
2023-02-09T03:55:20.000Z,61.5
2023-02-09T03:56:36.000Z,61.5
2023-02-09T03:57:53.000Z,61.4
2023-02-09T03:59:09.000Z,61.5
2023-02-09T04:00:25.000Z,61.2
2023-02-09T04:01:40.662Z,61.3
2023-02-09T04:02:56.000Z,61.6
2023-02-09T04:04:13.000Z,61.7
2023-02-09T04:05:29.000Z,61.8
2023-02-09T04:06:45.000Z,62
2023-02-09T04:08:01.000Z,61.8
2023-02-09T04:09:17.000Z,61.9
2023-02-09T04:10:34.000Z,62
2023-02-09T04:11:50.000Z,61.9
2023-02-09T04:13:06.000Z,61.9
2023-02-09T04:14:22.000Z,61.7
2023-02-09T04:15:38.000Z,61.5
2023-02-09T04:16:55.000Z,61.5
2023-02-09T04:18:10.000Z,61.3
2023-02-09T04:19:26.000Z,61.2
2023-02-09T04:20:42.000Z,61.2
2023-02-09T04:21:58.000Z,61.5
2023-02-09T04:23:15.000Z,61.6
2023-02-09T04:24:31.000Z,61.7
2023-02-09T04:25:47.000Z,61.9
2023-02-09T04:27:03.000Z,61.9
2023-02-09T04:28:19.000Z,62.2
2023-02-09T04:29:36.000Z,62.3
2023-02-09T04:30:52.000Z,62.3
2023-02-09T04:32:08.000Z,62.4
2023-02-09T04:33:24.000Z,62.5
2023-02-09T04:34:39.000Z,62.8
2023-02-09T04:35:56.000Z,62.9
2023-02-09T04:37:12.000Z,63
2023-02-09T04:38:28.000Z,62.9
2023-02-09T04:39:44.563Z,62.8
2023-02-09T04:41:00.000Z,62.5
2023-02-09T04:42:16.000Z,62.7
2023-02-09T04:43:33.000Z,63
2023-02-09T04:44:49.000Z,63.1
2023-02-09T04:46:05.000Z,62.9
2023-02-09T04:47:21.000Z,62.6
2023-02-09T04:48:37.000Z,62.6
2023-02-09T04:49:54.000Z,62.8
2023-02-09T04:51:09.000Z,62.8
2023-02-09T04:52:25.000Z,63.1
2023-02-09T04:53:41.000Z,62.9
2023-02-09T04:54:57.000Z,62.8
2023-02-09T04:56:14.000Z,62.6
2023-02-09T04:57:30.000Z,62.4
2023-02-09T04:58:46.000Z,62.9
2023-02-09T05:00:02.000Z,63.1
2023-02-09T05:01:18.000Z,63
2023-02-09T05:02:35.000Z,62.9
2023-02-09T05:03:51.000Z,62.5
2023-02-09T05:05:07.500Z,62.9
2023-02-09T05:06:23.000Z,63.1
2023-02-09T05:07:38.000Z,63.2
2023-02-09T05:08:55.000Z,63.1
2023-02-09T05:10:11.000Z,63.2
2023-02-09T05:11:27.000Z,63.1
2023-02-09T05:12:43.000Z,63.2
2023-02-09T05:13:59.000Z,63.4
2023-02-09T05:15:16.000Z,63.6
2023-02-09T05:16:32.000Z,63.6
2023-02-09T05:17:48.000Z,63.5
2023-02-09T05:19:04.000Z,63.5
2023-02-09T05:20:20.000Z,63.5
2023-02-09T05:21:37.000Z,63.8
2023-02-09T05:22:53.000Z,63.6
2023-02-09T05:24:08.000Z,63.6
2023-02-09T05:25:24.000Z,63.5
2023-02-09T05:26:40.000Z,63.6
2023-02-09T05:27:57.000Z,63.8
2023-02-09T05:29:13.000Z,63.9
2023-02-09T05:30:29.000Z,63.9
2023-02-09T05:31:45.000Z,64
2023-02-09T05:33:01.000Z,63.9
2023-02-09T05:34:18.000Z,64.2
2023-02-09T05:35:34.000Z,64.6
2023-02-09T05:36:50.000Z,64.8
2023-02-09T05:38:06.000Z,64.8
2023-02-09T05:39:22.000Z,65.2
2023-02-09T05:40:38.000Z,65
2023-02-09T05:41:54.000Z,65
2023-02-09T05:43:10.425Z,65.3
2023-02-09T05:44:26.000Z,65.5
2023-02-09T05:45:42.000Z,65.5
2023-02-09T05:46:59.000Z,65.3
2023-02-09T05:48:14.000Z,65.3
2023-02-09T05:49:30.000Z,65.3
2023-02-09T05:50:46.000Z,65.6
2023-02-09T05:52:02.000Z,65.7
2023-02-09T05:53:19.000Z,65.7
2023-02-09T05:54:35.000Z,65.7
2023-02-09T05:55:51.000Z,65.6
2023-02-09T05:57:07.000Z,65.3
2023-02-09T05:58:23.000Z,65.2
2023-02-09T05:59:40.000Z,65.2
2023-02-09T06:00:56.000Z,65.5
2023-02-09T06:02:12.000Z,65.3
2023-02-09T06:03:28.000Z,65.3
2023-02-09T06:04:43.000Z,65.4
2023-02-09T06:06:00.000Z,65.3
2023-02-09T06:07:16.000Z,65.4
2023-02-09T06:08:32.380Z,65.5
2023-02-09T06:09:48.000Z,65.2
2023-02-09T06:11:04.000Z,65
2023-02-09T06:12:20.000Z,64.7
2023-02-09T06:13:37.000Z,64.5
2023-02-09T06:14:53.000Z,64.5
2023-02-09T06:16:09.000Z,64.8
2023-02-09T06:17:25.000Z,65.2
2023-02-09T06:18:41.000Z,64.9
2023-02-09T06:19:58.000Z,64.9
2023-02-09T06:21:13.345Z,64.8
2023-02-09T06:22:29.000Z,64.7
2023-02-09T06:23:45.000Z,64.6
2023-02-09T06:25:01.000Z,64.5
2023-02-09T06:26:18.000Z,64.8
2023-02-09T06:27:34.000Z,65
2023-02-09T06:28:50.000Z,65.2
2023-02-09T06:30:06.000Z,65
2023-02-09T06:31:22.000Z,65.2
2023-02-09T06:32:39.000Z,65.5
2023-02-09T06:33:55.000Z,65.8
2023-02-09T06:35:11.000Z,65.9
2023-02-09T06:36:27.000Z,66
2023-02-09T06:37:42.000Z,65.7
2023-02-09T06:38:59.000Z,65.2
2023-02-09T06:40:15.000Z,65.3
2023-02-09T06:41:31.000Z,64.5
2023-02-09T06:42:47.000Z,64.6
2023-02-09T06:44:03.000Z,64.6
2023-02-09T06:45:20.000Z,64.4
2023-02-09T06:46:36.274Z,64.3
2023-02-09T06:47:52.000Z,64.2
2023-02-09T06:49:08.000Z,64.2
2023-02-09T06:50:24.000Z,64.3
2023-02-09T06:51:41.000Z,64.6
2023-02-09T06:52:57.000Z,64.8
2023-02-09T06:54:12.470Z,64.6
2023-02-09T06:55:28.000Z,64.6
2023-02-09T06:56:44.000Z,64.8
2023-02-09T06:58:01.000Z,64.4
2023-02-09T06:59:17.254Z,64.6
2023-02-09T07:00:33.000Z,64.8
2023-02-09T07:01:49.000Z,64.6
2023-02-09T07:03:05.000Z,64.4
2023-02-09T07:04:22.000Z,64.2
2023-02-09T07:05:38.000Z,64.1
2023-02-09T07:06:54.000Z,63.9
2023-02-09T07:08:10.000Z,63.6
2023-02-09T07:09:26.000Z,63.7
2023-02-09T07:10:42.000Z,63.5
2023-02-09T07:11:58.000Z,63.7
2023-02-09T07:13:14.000Z,63.9
2023-02-09T07:14:30.624Z,64.1
2023-02-09T07:15:46.000Z,63.9
2023-02-09T07:17:03.000Z,63.8
2023-02-09T07:18:19.000Z,63.5
2023-02-09T07:19:35.000Z,63.5
2023-02-09T07:20:51.000Z,63.5
2023-02-09T07:22:07.000Z,63.1
2023-02-09T07:23:24.000Z,63.1
2023-02-09T07:24:40.183Z,63
2023-02-09T07:25:56.391Z,62.7
2023-02-09T07:27:11.000Z,62.9
2023-02-09T07:28:27.000Z,62.9
2023-02-09T07:29:44.000Z,62.7
2023-02-09T07:31:00.000Z,62.9
2023-02-09T07:32:16.000Z,63.1
2023-02-09T07:33:32.000Z,63.3
2023-02-09T07:34:48.000Z,63.8
2023-02-09T07:36:05.000Z,64.2
2023-02-09T07:37:21.000Z,64.1
2023-02-09T07:38:37.000Z,63.8
2023-02-09T07:39:53.000Z,63.5
2023-02-09T07:41:09.000Z,63
2023-02-09T07:42:25.000Z,62.8
2023-02-09T07:43:41.000Z,62.3
2023-02-09T07:44:57.000Z,62.1
2023-02-09T07:46:13.000Z,62.2
2023-02-09T07:47:29.000Z,62.2
2023-02-09T07:48:45.935Z,61.9
2023-02-09T07:50:02.000Z,61.7
2023-02-09T07:51:18.000Z,61.1
2023-02-09T07:52:34.539Z,60.9
2023-02-09T07:53:50.000Z,61
2023-02-09T07:55:06.000Z,60.9
2023-02-09T07:56:23.000Z,60.8
2023-02-09T07:57:39.000Z,61.1
2023-02-09T07:58:55.000Z,61.5
2023-02-09T08:00:10.000Z,61
2023-02-09T08:01:26.000Z,61.9
2023-02-09T08:02:43.120Z,62.2
2023-02-09T08:03:59.000Z,59.2
2023-02-09T08:05:15.000Z,57.9
2023-02-09T08:06:31.000Z,57.3
2023-02-09T08:07:47.000Z,57.2
2023-02-09T08:09:04.000Z,56.1
2023-02-09T08:10:20.000Z,54.9
2023-02-09T08:11:36.000Z,55.4
2023-02-09T08:12:52.000Z,54
2023-02-09T08:14:08.000Z,52.5
2023-02-09T08:15:25.077Z,52.2
2023-02-09T08:16:40.000Z,52.1
2023-02-09T08:17:56.000Z,51.6
2023-02-09T08:19:12.000Z,51.3
2023-02-09T08:20:28.000Z,51
2023-02-09T08:21:45.000Z,50.5
2023-02-09T08:23:01.000Z,50.5
2023-02-09T08:24:17.000Z,49.6
2023-02-09T08:25:33.000Z,48.9
2023-02-09T08:26:49.000Z,49.8
2023-02-09T08:28:06.000Z,48.4
2023-02-09T08:29:22.000Z,47.7
2023-02-09T08:30:38.000Z,46.8
2023-02-09T08:31:54.000Z,46.4
2023-02-09T08:33:09.000Z,45.5
2023-02-09T08:34:26.000Z,45.5
2023-02-09T08:35:42.000Z,45.8
2023-02-09T08:36:58.000Z,45.2
2023-02-09T08:38:14.000Z,45.9
2023-02-09T08:39:30.000Z,45.9
2023-02-09T08:40:47.000Z,45.1
2023-02-09T08:42:03.000Z,45.5
2023-02-09T08:43:19.000Z,45.2
2023-02-09T08:44:35.000Z,44.6
2023-02-09T08:45:51.000Z,45.4
2023-02-09T08:47:08.000Z,45.6
2023-02-09T08:48:24.000Z,45.2
2023-02-09T08:49:39.000Z,44.9
2023-02-09T08:50:55.000Z,45.2
2023-02-09T08:52:11.000Z,45.3
2023-02-09T08:53:27.981Z,44.5
2023-02-09T08:54:44.000Z,44.6
2023-02-09T08:56:00.000Z,44.9
2023-02-09T08:57:16.000Z,44.5
2023-02-09T08:58:32.000Z,44.8
2023-02-09T08:59:48.000Z,44.7
2023-02-09T09:01:05.000Z,45.1
2023-02-09T09:02:21.000Z,45.8
2023-02-09T09:03:37.000Z,45.7
2023-02-09T09:04:53.000Z,44.9
2023-02-09T09:06:08.000Z,44
2023-02-09T09:07:25.000Z,42.8
2023-02-09T09:08:41.346Z,42.1
2023-02-09T09:09:57.000Z,41.8
2023-02-09T09:11:13.000Z,41.9
2023-02-09T09:12:29.927Z,42.5
2023-02-09T09:13:46.000Z,43.7
2023-02-09T09:15:02.319Z,44.5
2023-02-09T09:16:18.000Z,45.2
2023-02-09T09:17:34.000Z,44.5
2023-02-09T09:18:50.000Z,43.8
2023-02-09T09:20:07.000Z,43.6
2023-02-09T09:21:23.000Z,43.8
2023-02-09T09:22:38.000Z,43.5
2023-02-09T09:23:54.000Z,43.5
2023-02-09T09:25:10.000Z,43.3
2023-02-09T09:26:27.000Z,42.9
2023-02-09T09:27:43.000Z,42.4
2023-02-09T09:28:59.000Z,41.9
2023-02-09T09:30:15.000Z,42.4
2023-02-09T09:31:31.864Z,42.8
2023-02-09T09:32:48.000Z,43.3
2023-02-09T09:34:04.000Z,44.3
2023-02-09T09:35:20.000Z,44.5
2023-02-09T09:36:36.000Z,45.2
2023-02-09T09:37:52.000Z,44.9
2023-02-09T09:39:08.000Z,44
2023-02-09T09:40:24.000Z,44.1
2023-02-09T09:41:40.000Z,44.2
2023-02-09T09:42:56.000Z,43.4
2023-02-09T09:44:12.838Z,44
2023-02-09T09:45:29.000Z,44.5
2023-02-09T09:46:45.000Z,44.7
2023-02-09T09:48:01.000Z,44.1
2023-02-09T09:49:17.000Z,45
2023-02-09T09:50:33.000Z,45.5
2023-02-09T09:51:50.000Z,44.8
2023-02-09T09:53:06.000Z,43.9
2023-02-09T09:54:22.000Z,44.1
2023-02-09T09:55:37.000Z,43.1
2023-02-09T09:56:53.000Z,42.1
2023-02-09T09:58:10.000Z,41.5
2023-02-09T09:59:26.000Z,41.6
2023-02-09T10:00:42.000Z,41
2023-02-09T10:01:58.000Z,40.7
2023-02-09T10:03:13.000Z,41.6
2023-02-09T10:04:30.000Z,41.8
2023-02-09T10:05:46.000Z,41.5
2023-02-09T10:07:02.000Z,40.4
2023-02-09T10:08:18.000Z,40.2
2023-02-09T10:09:34.800Z,40.2
2023-02-09T10:10:51.000Z,40
2023-02-09T10:12:07.000Z,40.2
2023-02-09T10:13:23.000Z,39.4
2023-02-09T10:14:39.576Z,38.5
2023-02-09T10:15:55.000Z,38.8
2023-02-09T10:17:12.000Z,38
2023-02-09T10:18:28.000Z,37.5
2023-02-09T10:19:43.000Z,37.4
2023-02-09T10:20:59.000Z,36.9
2023-02-09T10:22:15.754Z,36.9
2023-02-09T10:23:31.000Z,37.3
2023-02-09T10:24:48.000Z,37.8
2023-02-09T10:26:04.000Z,38.2
2023-02-09T10:27:20.000Z,39.4
2023-02-09T10:28:36.000Z,39.3
2023-02-09T10:29:52.000Z,39
2023-02-09T10:31:09.000Z,39
2023-02-09T10:32:25.000Z,39.1
2023-02-09T10:33:41.000Z,38.9
2023-02-09T10:34:57.000Z,39.7
2023-02-09T10:36:12.000Z,41.3
2023-02-09T10:37:29.000Z,42.3
2023-02-09T10:38:45.000Z,42
2023-02-09T10:40:01.000Z,41.8
2023-02-09T10:41:17.000Z,41.9
2023-02-09T10:42:33.000Z,41.5
2023-02-09T10:43:50.000Z,41.7
2023-02-09T10:45:06.000Z,42.4
2023-02-09T10:46:22.000Z,42.2
2023-02-09T10:47:38.000Z,41.9
2023-02-09T10:48:54.000Z,41.6
2023-02-09T10:50:11.000Z,41.5
2023-02-09T10:51:27.000Z,41.1
2023-02-09T10:52:42.000Z,41.3
2023-02-09T10:53:58.679Z,41.7
2023-02-09T10:55:14.000Z,41.7
2023-02-09T10:56:31.000Z,43.1
2023-02-09T10:57:47.000Z,42.7
2023-02-09T10:59:03.000Z,42.8
2023-02-09T11:00:19.000Z,43.7
2023-02-09T11:01:35.000Z,43.3
2023-02-09T11:02:52.000Z,44
2023-02-09T11:04:08.000Z,44.5
2023-02-09T11:05:24.000Z,44.7
2023-02-09T11:06:40.000Z,44.9
2023-02-09T11:07:56.000Z,46
2023-02-09T11:09:12.000Z,45.8
2023-02-09T11:10:28.000Z,46.3
2023-02-09T11:11:44.000Z,46.4
2023-02-09T11:13:00.000Z,46.5
2023-02-09T11:14:16.000Z,46.6
2023-02-09T11:15:33.000Z,46.3
2023-02-09T11:16:49.000Z,45.8
2023-02-09T11:18:05.000Z,45.8
2023-02-09T11:19:21.000Z,45.6
2023-02-09T11:20:37.000Z,45.1
2023-02-09T11:21:54.000Z,45.7
2023-02-09T11:23:10.000Z,46.3
2023-02-09T11:24:26.000Z,47
2023-02-09T11:25:41.000Z,46.8
2023-02-09T11:26:57.000Z,46.6
2023-02-09T11:28:14.000Z,47.6
2023-02-09T11:29:30.000Z,47.7
2023-02-09T11:30:46.000Z,48
2023-02-09T11:32:02.000Z,52
2023-02-09T11:33:18.000Z,49.9
2023-02-09T11:34:35.000Z,48.7
2023-02-09T11:35:51.000Z,47
2023-02-09T11:37:07.000Z,46
2023-02-09T11:38:23.000Z,47.8
2023-02-09T11:39:39.000Z,45
2023-02-09T11:40:55.000Z,45
2023-02-09T11:42:11.000Z,45.4
2023-02-09T11:43:27.000Z,44.9
2023-02-09T11:44:43.000Z,44.7
2023-02-09T11:45:59.000Z,44.8
2023-02-09T11:47:15.000Z,44.1
2023-02-09T11:48:32.000Z,44.9
2023-02-09T11:49:48.000Z,45.7
2023-02-09T11:51:04.000Z,45.7
2023-02-09T11:52:20.000Z,46.4
2023-02-09T11:53:36.000Z,46.2
2023-02-09T11:54:53.000Z,46.1
2023-02-09T11:56:09.000Z,46.1
2023-02-09T11:57:25.000Z,46.6
2023-02-09T11:58:40.000Z,47
2023-02-09T11:59:56.000Z,46.8
2023-02-09T12:01:13.000Z,46
2023-02-09T12:02:29.000Z,45.6
2023-02-09T12:03:45.495Z,44.5
2023-02-09T12:05:01.000Z,45
2023-02-09T12:06:17.000Z,45.3
2023-02-09T12:07:34.000Z,44.7
2023-02-09T12:08:50.000Z,45.3
2023-02-09T12:10:06.000Z,45.6
2023-02-09T12:11:22.000Z,45.3
2023-02-09T12:12:38.000Z,45.6
2023-02-09T12:13:55.000Z,46.4
2023-02-09T12:15:10.000Z,46.5
2023-02-09T12:16:26.470Z,46.4
2023-02-09T12:17:42.000Z,46.4
2023-02-09T12:18:58.000Z,46.3
2023-02-09T12:20:15.000Z,46.3
2023-02-09T12:21:31.000Z,46.4
2023-02-09T12:22:47.000Z,46.1
2023-02-09T12:24:03.000Z,45.8
2023-02-09T12:25:19.000Z,45.7
2023-02-09T12:26:36.000Z,46
2023-02-09T12:27:52.000Z,46.7
2023-02-09T12:29:08.406Z,46.6
2023-02-09T12:30:24.000Z,47
2023-02-09T12:31:39.000Z,47
2023-02-09T12:32:56.000Z,46.9
2023-02-09T12:34:12.000Z,46.6
2023-02-09T12:35:28.000Z,46.6
2023-02-09T12:36:44.000Z,47
2023-02-09T12:38:00.000Z,47
2023-02-09T12:39:17.000Z,47.1
2023-02-09T12:40:33.000Z,46.8
2023-02-09T12:41:49.000Z,46.5
2023-02-09T12:43:05.000Z,46.3
2023-02-09T12:44:21.000Z,46.3
2023-02-09T12:45:37.000Z,45.8
2023-02-09T12:46:54.000Z,45.6
2023-02-09T12:48:09.000Z,46
2023-02-09T12:49:25.000Z,46.6
2023-02-09T12:50:41.000Z,46.6
2023-02-09T12:51:57.000Z,46.9
2023-02-09T12:53:14.000Z,46.8
2023-02-09T12:54:30.300Z,46.8
2023-02-09T12:55:46.000Z,47
2023-02-09T12:57:02.000Z,47.1
2023-02-09T12:58:18.000Z,46.8
2023-02-09T12:59:35.000Z,47.1
2023-02-09T13:00:51.000Z,47.2
2023-02-09T13:02:07.000Z,47.6
2023-02-09T13:03:23.000Z,48.3
2023-02-09T13:04:38.877Z,48.2
2023-02-09T13:05:55.057Z,47.9
2023-02-09T13:07:11.000Z,47.5
2023-02-09T13:08:27.000Z,47.9
2023-02-09T13:09:43.000Z,48.2
2023-02-09T13:10:59.000Z,48.2
2023-02-09T13:12:16.000Z,47.7
2023-02-09T13:13:32.000Z,47.4
2023-02-09T13:14:48.000Z,47.1
2023-02-09T13:16:04.000Z,47.4
2023-02-09T13:17:20.000Z,47.4
2023-02-09T13:18:37.000Z,47.4
2023-02-09T13:19:53.196Z,47.5
2023-02-09T13:21:08.000Z,47.7
2023-02-09T13:22:24.000Z,47.7
2023-02-09T13:23:40.000Z,47.3
2023-02-09T13:24:57.000Z,47.3
2023-02-09T13:26:13.000Z,46.9
2023-02-09T13:27:29.000Z,47.1
2023-02-09T13:28:45.000Z,47.3
2023-02-09T13:30:01.000Z,47.2
2023-02-09T13:31:18.000Z,47.3
2023-02-09T13:32:34.154Z,47.1
2023-02-09T13:33:50.339Z,47
2023-02-09T13:35:06.000Z,47.4
2023-02-09T13:36:22.000Z,47.6
2023-02-09T13:37:37.000Z,47.9
2023-02-09T13:38:54.130Z,47.4
2023-02-09T13:40:10.000Z,47.7
2023-02-09T13:41:26.000Z,47.7
2023-02-09T13:42:42.000Z,47.6
2023-02-09T13:43:58.900Z,47.6
2023-02-09T13:45:15.000Z,47.6
2023-02-09T13:46:31.000Z,47.7
2023-02-09T13:47:47.483Z,47.8
2023-02-09T13:49:03.000Z,48.2
2023-02-09T13:50:19.000Z,48.1
2023-02-09T13:51:36.000Z,47.9
2023-02-09T13:52:52.000Z,47.4
2023-02-09T13:54:07.000Z,47.7
2023-02-09T13:55:23.000Z,47.9
2023-02-09T13:56:39.000Z,48.1
2023-02-09T13:57:56.000Z,47.8
2023-02-09T13:59:12.000Z,47.6
2023-02-09T14:00:28.483Z,47.8
2023-02-09T14:01:44.000Z,48.1
2023-02-09T14:03:00.000Z,47.6
2023-02-09T14:04:17.064Z,47.3
2023-02-09T14:05:33.000Z,47.5
2023-02-09T14:06:49.000Z,47.1
2023-02-09T14:08:05.000Z,47.1
2023-02-09T14:09:21.000Z,47.2
2023-02-09T14:10:37.054Z,46.9
2023-02-09T14:11:53.251Z,47.4
2023-02-09T14:13:09.000Z,47.6
2023-02-09T14:14:25.000Z,47.6
2023-02-09T14:15:41.000Z,47.5
2023-02-09T14:16:58.000Z,47.2
2023-02-09T14:18:13.000Z,47.1
2023-02-09T14:19:29.000Z,47.1
2023-02-09T14:20:45.000Z,47
2023-02-09T14:22:01.000Z,47.1
2023-02-09T14:23:18.000Z,47
2023-02-09T14:24:34.197Z,47.3
2023-02-09T14:25:50.000Z,47.7
2023-02-09T14:27:06.000Z,47.6
2023-02-09T14:28:22.000Z,47.6
2023-02-09T14:29:38.000Z,47.7
2023-02-09T14:30:55.000Z,47.8
2023-02-09T14:32:11.000Z,47.9
2023-02-09T14:33:27.000Z,47.6
2023-02-09T14:34:42.000Z,47.5
2023-02-09T14:35:58.968Z,47.6
2023-02-09T14:37:15.000Z,47.4
2023-02-09T14:38:31.000Z,47.2
2023-02-09T14:39:47.000Z,47.1
2023-02-09T14:41:03.000Z,47
2023-02-09T14:42:19.000Z,47
2023-02-09T14:43:36.000Z,47.1
2023-02-09T14:44:52.000Z,47.3
2023-02-09T14:46:08.000Z,47.8
2023-02-09T14:47:24.000Z,47.7
2023-02-09T14:48:40.907Z,47.8
2023-02-09T14:49:57.000Z,47.3
2023-02-09T14:51:12.000Z,47.4
2023-02-09T14:52:28.000Z,48.8
2023-02-09T14:53:44.000Z,48.2
2023-02-09T14:55:00.000Z,47.9
2023-02-09T14:56:17.000Z,47.8
2023-02-09T14:57:33.000Z,47.7
2023-02-09T14:58:49.000Z,47.7
2023-02-09T15:00:05.000Z,47.6
2023-02-09T15:01:21.844Z,47.8
2023-02-09T15:02:38.000Z,48.3
2023-02-09T15:03:54.000Z,49
2023-02-09T15:05:10.000Z,48.5
2023-02-09T15:06:26.000Z,47.6
2023-02-09T15:07:41.000Z,47.8
2023-02-09T15:08:58.000Z,48.1
2023-02-09T15:10:14.000Z,48.3
2023-02-09T15:11:30.000Z,48.6
2023-02-09T15:12:46.000Z,48.5
2023-02-09T15:14:02.000Z,48.6
2023-02-09T15:15:19.000Z,48.8
2023-02-09T15:16:35.201Z,48.5
2023-02-09T15:17:51.000Z,48.5
2023-02-09T15:19:07.000Z,48.6
2023-02-09T15:20:23.000Z,48.8
2023-02-09T15:21:39.000Z,48.9
2023-02-09T15:22:56.000Z,49
2023-02-09T15:24:11.000Z,48.9
2023-02-09T15:25:27.000Z,48.7
2023-02-09T15:26:43.771Z,48.8
2023-02-09T15:27:59.000Z,48.6
2023-02-09T15:29:16.000Z,48.7
2023-02-09T15:30:32.000Z,52.1
2023-02-09T15:31:48.000Z,51.5
2023-02-09T15:33:04.734Z,49.8
2023-02-09T15:34:20.000Z,49.4
2023-02-09T15:35:37.000Z,50
2023-02-09T15:36:53.000Z,49
2023-02-09T15:38:09.502Z,49
2023-02-09T15:39:25.693Z,49.1
2023-02-09T15:40:40.000Z,49.2
2023-02-09T15:41:57.000Z,49.1
2023-02-09T15:43:13.000Z,49.4
2023-02-09T15:44:29.000Z,49.3
2023-02-09T15:45:45.000Z,49.5
2023-02-09T15:47:01.000Z,49.6
2023-02-09T15:48:18.000Z,49.5
2023-02-09T15:49:34.000Z,49.8
2023-02-09T15:50:50.000Z,49.8
2023-02-09T15:52:06.000Z,49.9
2023-02-09T15:53:22.000Z,50.1
2023-02-09T15:54:39.000Z,50.3
2023-02-09T15:55:55.000Z,50.2
2023-02-09T15:57:10.000Z,50.2
2023-02-09T15:58:26.000Z,50.3
2023-02-09T15:59:42.000Z,50.4
2023-02-09T16:00:59.000Z,50.7
2023-02-09T16:02:15.000Z,50.9
2023-02-09T16:03:31.000Z,50.9
2023-02-09T16:04:47.000Z,51
2023-02-09T16:06:03.000Z,51.2
2023-02-09T16:07:20.000Z,51.3
2023-02-09T16:08:36.000Z,51.4
2023-02-09T16:09:52.000Z,51.5
2023-02-09T16:11:08.000Z,51.5
2023-02-09T16:12:24.000Z,51.7
2023-02-09T16:13:40.000Z,51.6
2023-02-09T16:14:56.000Z,51.7
2023-02-09T16:16:12.000Z,51.9
2023-02-09T16:17:28.000Z,51.9
2023-02-09T16:18:44.000Z,52.1
2023-02-09T16:20:00.940Z,52.3
2023-02-09T16:21:17.000Z,52.5
2023-02-09T16:22:33.000Z,52.6
2023-02-09T16:23:49.000Z,52.6
2023-02-09T16:25:05.000Z,53
2023-02-09T16:26:21.000Z,53.1
2023-02-09T16:27:38.000Z,53.1
2023-02-09T16:28:54.000Z,53.2
2023-02-09T16:30:09.503Z,53.2
2023-02-09T16:31:25.000Z,53.2
2023-02-09T16:32:41.000Z,53.1
2023-02-09T16:33:58.000Z,53.2
2023-02-09T16:35:14.000Z,53.2
2023-02-09T16:36:30.000Z,53.3
2023-02-09T16:37:46.000Z,53.3
2023-02-09T16:39:02.000Z,53.5
2023-02-09T16:40:19.000Z,53.6
2023-02-09T16:41:35.000Z,53.6
2023-02-09T16:42:51.000Z,53.7
2023-02-09T16:44:07.000Z,54.1
2023-02-09T16:45:23.000Z,54.5
2023-02-09T16:46:39.000Z,54.8
2023-02-09T16:47:55.000Z,54.9
2023-02-09T16:49:11.000Z,54.9
2023-02-09T16:50:27.000Z,54.9
2023-02-09T16:51:43.814Z,55.1
2023-02-09T16:53:00.000Z,55.3
2023-02-09T16:54:16.000Z,55.6
2023-02-09T16:55:32.388Z,55.8
2023-02-09T16:56:48.000Z,56
2023-02-09T16:58:04.000Z,55.8
2023-02-09T16:59:21.000Z,55.7
2023-02-09T17:00:37.000Z,56